sensor_id;sensor_type;location;lat;lon;timestamp;P1;durP1;ratioP1;P2;durP2;ratioP2
15082;SDS011;7640;53.116;6.878;2022-12-05T00:02:25;34.37;;;19.20;;
15082;SDS011;7640;53.116;6.878;2022-12-05T00:04:55;34.57;;;18.90;;
15082;SDS011;7640;53.116;6.878;2022-12-05T00:07:23;34.47;;;19.57;;
15082;SDS011;7640;53.116;6.878;2022-12-05T00:09:52;32.87;;;18.33;;
15082;SDS011;7640;53.116;6.878;2022-12-05T00:12:21;36.03;;;18.87;;
15082;SDS011;7640;53.116;6.878;2022-12-05T00:14:50;33.40;;;19.17;;
15082;SDS011;7640;53.116;6.878;2022-12-05T00:17:20;35.13;;;19.03;;
15082;SDS011;7640;53.116;6.878;2022-12-05T00:19:49;35.77;;;19.53;;
15082;SDS011;7640;53.116;6.878;2022-12-05T00:22:22;35.43;;;19.73;;
15082;SDS011;7640;53.116;6.878;2022-12-05T00:24:52;34.43;;;19.67;;
15082;SDS011;7640;53.116;6.878;2022-12-05T00:27:20;35.83;;;20.60;;
15082;SDS011;7640;53.116;6.878;2022-12-05T00:29:49;35.00;;;20.93;;
15082;SDS011;7640;53.116;6.878;2022-12-05T00:32:18;37.30;;;20.57;;
15082;SDS011;7640;53.116;6.878;2022-12-05T00:34:49;34.23;;;19.40;;
15082;SDS011;7640;53.116;6.878;2022-12-05T00:37:17;35.87;;;19.40;;
15082;SDS011;7640;53.116;6.878;2022-12-05T00:39:46;36.43;;;20.30;;
15082;SDS011;7640;53.116;6.878;2022-12-05T00:42:15;41.30;;;21.47;;
15082;SDS011;7640;53.116;6.878;2022-12-05T00:44:44;41.37;;;22.07;;
15082;SDS011;7640;53.116;6.878;2022-12-05T00:47:13;39.70;;;22.43;;
15082;SDS011;7640;53.116;6.878;2022-12-05T00:49:43;38.33;;;21.70;;
15082;SDS011;7640;53.116;6.878;2022-12-05T00:52:12;38.33;;;20.93;;
15082;SDS011;7640;53.116;6.878;2022-12-05T00:54:42;41.23;;;21.83;;
15082;SDS011;7640;53.116;6.878;2022-12-05T00:57:11;41.63;;;21.80;;
15082;SDS011;7640;53.116;6.878;2022-12-05T00:59:40;40.70;;;23.10;;
15082;SDS011;7640;53.116;6.878;2022-12-05T01:02:08;43.43;;;23.37;;
15082;SDS011;7640;53.116;6.878;2022-12-05T01:04:37;43.33;;;24.27;;
15082;SDS011;7640;53.116;6.878;2022-12-05T01:07:08;41.53;;;22.83;;
15082;SDS011;7640;53.116;6.878;2022-12-05T01:09:37;38.33;;;21.73;;
15082;SDS011;7640;53.116;6.878;2022-12-05T01:12:06;38.27;;;21.80;;
15082;SDS011;7640;53.116;6.878;2022-12-05T01:14:34;38.00;;;21.33;;
15082;SDS011;7640;53.116;6.878;2022-12-05T01:17:03;40.30;;;22.47;;
15082;SDS011;7640;53.116;6.878;2022-12-05T01:19:32;41.27;;;23.33;;
15082;SDS011;7640;53.116;6.878;2022-12-05T01:22:01;39.20;;;22.90;;
15082;SDS011;7640;53.116;6.878;2022-12-05T01:24:31;41.30;;;22.77;;
15082;SDS011;7640;53.116;6.878;2022-12-05T01:26:59;43.27;;;23.23;;
15082;SDS011;7640;53.116;6.878;2022-12-05T01:29:28;40.47;;;23.13;;
15082;SDS011;7640;53.116;6.878;2022-12-05T01:31:57;44.87;;;23.93;;
15082;SDS011;7640;53.116;6.878;2022-12-05T01:34:26;39.83;;;21.67;;
15082;SDS011;7640;53.116;6.878;2022-12-05T01:36:56;38.83;;;21.97;;
15082;SDS011;7640;53.116;6.878;2022-12-05T01:39:24;40.33;;;21.43;;
15082;SDS011;7640;53.116;6.878;2022-12-05T01:41:55;38.13;;;21.33;;
15082;SDS011;7640;53.116;6.878;2022-12-05T01:47:37;36.47;;;20.03;;
15082;SDS011;7640;53.116;6.878;2022-12-05T01:50:07;39.57;;;20.80;;
15082;SDS011;7640;53.116;6.878;2022-12-05T01:52:36;33.60;;;19.13;;
15082;SDS011;7640;53.116;6.878;2022-12-05T01:55:08;36.03;;;19.67;;
15082;SDS011;7640;53.116;6.878;2022-12-05T01:57:45;34.10;;;19.53;;
15082;SDS011;7640;53.116;6.878;2022-12-05T02:00:16;33.77;;;19.80;;
15082;SDS011;7640;53.116;6.878;2022-12-05T02:02:48;40.50;;;20.67;;
15082;SDS011;7640;53.116;6.878;2022-12-05T02:05:22;36.27;;;20.10;;
15082;SDS011;7640;53.116;6.878;2022-12-05T02:07:54;34.03;;;17.43;;
15082;SDS011;7640;53.116;6.878;2022-12-05T02:10:25;31.90;;;17.70;;
15082;SDS011;7640;53.116;6.878;2022-12-05T02:13:00;30.07;;;17.20;;
15082;SDS011;7640;53.116;6.878;2022-12-05T02:15:42;29.80;;;16.70;;
15082;SDS011;7640;53.116;6.878;2022-12-05T02:18:25;30.43;;;18.00;;
15082;SDS011;7640;53.116;6.878;2022-12-05T02:21:16;26.63;;;15.73;;
15082;SDS011;7640;53.116;6.878;2022-12-05T02:24:18;28.70;;;16.73;;
15082;SDS011;7640;53.116;6.878;2022-12-05T02:30:31;27.27;;;16.57;;
15082;SDS011;7640;53.116;6.878;2022-12-05T02:33:09;25.73;;;15.27;;
15082;SDS011;7640;53.116;6.878;2022-12-05T02:35:49;27.73;;;16.17;;
15082;SDS011;7640;53.116;6.878;2022-12-05T02:38:25;25.33;;;14.23;;
15082;SDS011;7640;53.116;6.878;2022-12-05T02:41:03;25.47;;;15.80;;
15082;SDS011;7640;53.116;6.878;2022-12-05T02:43:43;24.03;;;14.97;;
15082;SDS011;7640;53.116;6.878;2022-12-05T02:46:20;25.23;;;14.90;;
15082;SDS011;7640;53.116;6.878;2022-12-05T02:48:52;24.20;;;14.00;;
15082;SDS011;7640;53.116;6.878;2022-12-05T02:51:28;22.00;;;14.27;;
15082;SDS011;7640;53.116;6.878;2022-12-05T02:54:03;25.23;;;15.10;;
15082;SDS011;7640;53.116;6.878;2022-12-05T02:56:37;22.97;;;14.27;;
15082;SDS011;7640;53.116;6.878;2022-12-05T02:59:07;22.97;;;13.70;;
15082;SDS011;7640;53.116;6.878;2022-12-05T03:01:38;24.77;;;15.17;;
15082;SDS011;7640;53.116;6.878;2022-12-05T03:04:08;24.17;;;14.33;;
15082;SDS011;7640;53.116;6.878;2022-12-05T03:09:10;22.37;;;13.87;;
15082;SDS011;7640;53.116;6.878;2022-12-05T03:11:46;23.43;;;14.53;;
15082;SDS011;7640;53.116;6.878;2022-12-05T03:14:20;19.90;;;13.73;;
15082;SDS011;7640;53.116;6.878;2022-12-05T03:16:55;20.33;;;13.70;;
15082;SDS011;7640;53.116;6.878;2022-12-05T03:19:29;23.03;;;13.93;;
15082;SDS011;7640;53.116;6.878;2022-12-05T03:22:06;21.97;;;13.73;;
15082;SDS011;7640;53.116;6.878;2022-12-05T03:24:39;21.10;;;13.67;;
15082;SDS011;7640;53.116;6.878;2022-12-05T03:27:08;21.37;;;14.03;;
15082;SDS011;7640;53.116;6.878;2022-12-05T03:29:48;20.60;;;13.83;;
15082;SDS011;7640;53.116;6.878;2022-12-05T03:32:23;22.30;;;13.73;;
15082;SDS011;7640;53.116;6.878;2022-12-05T03:35:01;18.87;;;13.13;;
15082;SDS011;7640;53.116;6.878;2022-12-05T03:37:36;21.77;;;13.63;;
15082;SDS011;7640;53.116;6.878;2022-12-05T03:40:13;23.43;;;13.80;;
15082;SDS011;7640;53.116;6.878;2022-12-05T03:42:55;20.33;;;12.60;;
15082;SDS011;7640;53.116;6.878;2022-12-05T03:45:30;22.13;;;13.53;;
15082;SDS011;7640;53.116;6.878;2022-12-05T03:48:08;20.60;;;12.73;;
15082;SDS011;7640;53.116;6.878;2022-12-05T03:50:41;17.20;;;11.03;;
15082;SDS011;7640;53.116;6.878;2022-12-05T03:53:14;18.73;;;11.57;;
15082;SDS011;7640;53.116;6.878;2022-12-05T03:55:48;18.07;;;11.53;;
15082;SDS011;7640;53.116;6.878;2022-12-05T03:58:25;17.00;;;10.83;;
15082;SDS011;7640;53.116;6.878;2022-12-05T04:00:58;17.90;;;11.63;;
15082;SDS011;7640;53.116;6.878;2022-12-05T04:03:34;18.53;;;11.13;;
15082;SDS011;7640;53.116;6.878;2022-12-05T04:06:09;15.67;;;10.03;;
15082;SDS011;7640;53.116;6.878;2022-12-05T04:08:46;16.37;;;11.03;;
15082;SDS011;7640;53.116;6.878;2022-12-05T04:11:19;15.47;;;10.73;;
15082;SDS011;7640;53.116;6.878;2022-12-05T04:13:52;17.47;;;11.40;;
15082;SDS011;7640;53.116;6.878;2022-12-05T04:16:26;20.10;;;11.77;;
15082;SDS011;7640;53.116;6.878;2022-12-05T04:19:20;17.07;;;11.50;;
15082;SDS011;7640;53.116;6.878;2022-12-05T04:21:54;16.07;;;10.63;;
15082;SDS011;7640;53.116;6.878;2022-12-05T04:24:22;16.87;;;10.33;;
15082;SDS011;7640;53.116;6.878;2022-12-05T04:27:17;15.67;;;9.67;;
15082;SDS011;7640;53.116;6.878;2022-12-05T04:29:52;16.60;;;10.23;;
15082;SDS011;7640;53.116;6.878;2022-12-05T04:32:29;14.63;;;9.90;;
15082;SDS011;7640;53.116;6.878;2022-12-05T04:35:08;14.97;;;10.33;;
15082;SDS011;7640;53.116;6.878;2022-12-05T04:37:43;16.53;;;9.90;;
15082;SDS011;7640;53.116;6.878;2022-12-05T04:40:17;14.77;;;9.90;;
15082;SDS011;7640;53.116;6.878;2022-12-05T04:42:50;15.80;;;9.87;;
15082;SDS011;7640;53.116;6.878;2022-12-05T04:45:20;15.53;;;10.07;;
15082;SDS011;7640;53.116;6.878;2022-12-05T04:47:52;15.57;;;10.10;;
15082;SDS011;7640;53.116;6.878;2022-12-05T04:50:25;16.43;;;10.13;;
15082;SDS011;7640;53.116;6.878;2022-12-05T04:52:56;13.67;;;9.53;;
15082;SDS011;7640;53.116;6.878;2022-12-05T04:55:27;14.70;;;9.47;;
15082;SDS011;7640;53.116;6.878;2022-12-05T04:58:02;14.90;;;9.43;;
15082;SDS011;7640;53.116;6.878;2022-12-05T05:00:36;14.30;;;9.20;;
15082;SDS011;7640;53.116;6.878;2022-12-05T05:03:14;15.43;;;10.03;;
15082;SDS011;7640;53.116;6.878;2022-12-05T05:05:51;14.90;;;9.63;;
15082;SDS011;7640;53.116;6.878;2022-12-05T05:08:24;13.73;;;9.23;;
15082;SDS011;7640;53.116;6.878;2022-12-05T05:10:59;13.47;;;9.20;;
15082;SDS011;7640;53.116;6.878;2022-12-05T05:13:37;13.87;;;8.77;;
15082;SDS011;7640;53.116;6.878;2022-12-05T05:16:05;13.73;;;8.87;;
15082;SDS011;7640;53.116;6.878;2022-12-05T05:18:35;15.33;;;9.50;;
15082;SDS011;7640;53.116;6.878;2022-12-05T05:21:05;14.87;;;9.17;;
15082;SDS011;7640;53.116;6.878;2022-12-05T05:23:33;14.53;;;9.10;;
15082;SDS011;7640;53.116;6.878;2022-12-05T05:26:01;17.30;;;10.53;;
15082;SDS011;7640;53.116;6.878;2022-12-05T05:28:30;14.53;;;9.27;;
15082;SDS011;7640;53.116;6.878;2022-12-05T05:31:00;15.33;;;9.40;;
15082;SDS011;7640;53.116;6.878;2022-12-05T05:33:29;14.27;;;9.43;;
15082;SDS011;7640;53.116;6.878;2022-12-05T05:36:00;18.07;;;10.70;;
15082;SDS011;7640;53.116;6.878;2022-12-05T05:38:34;18.90;;;10.03;;
15082;SDS011;7640;53.116;6.878;2022-12-05T05:41:03;15.57;;;10.07;;
15082;SDS011;7640;53.116;6.878;2022-12-05T05:43:32;17.93;;;10.37;;
15082;SDS011;7640;53.116;6.878;2022-12-05T05:46:02;16.70;;;10.40;;
15082;SDS011;7640;53.116;6.878;2022-12-05T05:48:31;17.50;;;10.77;;
15082;SDS011;7640;53.116;6.878;2022-12-05T05:50:59;16.73;;;10.90;;
15082;SDS011;7640;53.116;6.878;2022-12-05T05:53:29;18.23;;;11.23;;
15082;SDS011;7640;53.116;6.878;2022-12-05T05:56:00;15.83;;;10.73;;
15082;SDS011;7640;53.116;6.878;2022-12-05T05:58:30;17.47;;;10.53;;
15082;SDS011;7640;53.116;6.878;2022-12-05T06:01:01;16.90;;;10.23;;
15082;SDS011;7640;53.116;6.878;2022-12-05T06:03:30;17.23;;;10.80;;
15082;SDS011;7640;53.116;6.878;2022-12-05T06:05:59;18.17;;;10.40;;
15082;SDS011;7640;53.116;6.878;2022-12-05T06:08:31;16.77;;;10.20;;
15082;SDS011;7640;53.116;6.878;2022-12-05T06:11:03;18.63;;;11.27;;
15082;SDS011;7640;53.116;6.878;2022-12-05T06:13:32;16.20;;;9.77;;
15082;SDS011;7640;53.116;6.878;2022-12-05T06:16:01;18.63;;;10.07;;
15082;SDS011;7640;53.116;6.878;2022-12-05T06:18:31;17.43;;;10.67;;
15082;SDS011;7640;53.116;6.878;2022-12-05T06:21:00;18.33;;;10.40;;
15082;SDS011;7640;53.116;6.878;2022-12-05T06:23:32;18.30;;;10.40;;
15082;SDS011;7640;53.116;6.878;2022-12-05T06:26:01;18.40;;;10.87;;
15082;SDS011;7640;53.116;6.878;2022-12-05T06:28:31;18.70;;;11.57;;
15082;SDS011;7640;53.116;6.878;2022-12-05T06:31:05;19.60;;;10.67;;
15082;SDS011;7640;53.116;6.878;2022-12-05T06:33:35;18.07;;;10.63;;
15082;SDS011;7640;53.116;6.878;2022-12-05T06:36:04;18.13;;;10.90;;
15082;SDS011;7640;53.116;6.878;2022-12-05T06:38:36;20.60;;;11.00;;
15082;SDS011;7640;53.116;6.878;2022-12-05T06:41:08;18.70;;;11.37;;
15082;SDS011;7640;53.116;6.878;2022-12-05T06:43:38;20.97;;;11.67;;
15082;SDS011;7640;53.116;6.878;2022-12-05T06:46:07;18.00;;;11.10;;
15082;SDS011;7640;53.116;6.878;2022-12-05T06:48:38;19.67;;;11.13;;
15082;SDS011;7640;53.116;6.878;2022-12-05T06:51:08;17.20;;;10.93;;
15082;SDS011;7640;53.116;6.878;2022-12-05T06:53:38;22.63;;;11.57;;
15082;SDS011;7640;53.116;6.878;2022-12-05T06:56:09;18.93;;;11.70;;
15082;SDS011;7640;53.116;6.878;2022-12-05T06:58:40;21.47;;;12.33;;
15082;SDS011;7640;53.116;6.878;2022-12-05T07:01:11;22.80;;;10.80;;
15082;SDS011;7640;53.116;6.878;2022-12-05T07:03:57;18.23;;;10.93;;
15082;SDS011;7640;53.116;6.878;2022-12-05T07:06:26;22.93;;;11.87;;
15082;SDS011;7640;53.116;6.878;2022-12-05T07:08:56;21.93;;;11.50;;
15082;SDS011;7640;53.116;6.878;2022-12-05T07:11:24;21.47;;;12.63;;
15082;SDS011;7640;53.116;6.878;2022-12-05T07:13:53;22.13;;;13.00;;
15082;SDS011;7640;53.116;6.878;2022-12-05T07:16:21;23.17;;;12.47;;
15082;SDS011;7640;53.116;6.878;2022-12-05T07:18:50;27.07;;;12.93;;
15082;SDS011;7640;53.116;6.878;2022-12-05T07:21:18;29.53;;;13.60;;
15082;SDS011;7640;53.116;6.878;2022-12-05T07:23:47;24.77;;;12.77;;
15082;SDS011;7640;53.116;6.878;2022-12-05T07:26:18;22.67;;;12.37;;
15082;SDS011;7640;53.116;6.878;2022-12-05T07:28:50;25.50;;;12.67;;
15082;SDS011;7640;53.116;6.878;2022-12-05T07:31:19;27.07;;;13.20;;
15082;SDS011;7640;53.116;6.878;2022-12-05T07:33:51;27.73;;;13.37;;
15082;SDS011;7640;53.116;6.878;2022-12-05T07:36:20;25.50;;;12.77;;
15082;SDS011;7640;53.116;6.878;2022-12-05T07:38:53;23.77;;;12.63;;
15082;SDS011;7640;53.116;6.878;2022-12-05T07:41:24;30.23;;;13.50;;
15082;SDS011;7640;53.116;6.878;2022-12-05T07:43:55;27.50;;;13.00;;
15082;SDS011;7640;53.116;6.878;2022-12-05T07:46:25;23.87;;;12.67;;
15082;SDS011;7640;53.116;6.878;2022-12-05T07:48:55;23.43;;;12.87;;
15082;SDS011;7640;53.116;6.878;2022-12-05T07:51:23;25.40;;;12.67;;
15082;SDS011;7640;53.116;6.878;2022-12-05T07:53:51;25.53;;;11.90;;
15082;SDS011;7640;53.116;6.878;2022-12-05T07:56:19;24.27;;;11.60;;
15082;SDS011;7640;53.116;6.878;2022-12-05T07:58:49;26.40;;;12.37;;
15082;SDS011;7640;53.116;6.878;2022-12-05T08:01:19;24.27;;;11.77;;
15082;SDS011;7640;53.116;6.878;2022-12-05T08:03:51;23.17;;;12.13;;
15082;SDS011;7640;53.116;6.878;2022-12-05T08:06:21;23.73;;;12.70;;
15082;SDS011;7640;53.116;6.878;2022-12-05T08:08:53;23.60;;;11.13;;
15082;SDS011;7640;53.116;6.878;2022-12-05T08:11:22;27.27;;;12.03;;
15082;SDS011;7640;53.116;6.878;2022-12-05T08:13:54;19.77;;;11.07;;
15082;SDS011;7640;53.116;6.878;2022-12-05T08:16:24;22.87;;;11.50;;
15082;SDS011;7640;53.116;6.878;2022-12-05T08:18:55;19.97;;;11.27;;
15082;SDS011;7640;53.116;6.878;2022-12-05T08:21:24;18.87;;;11.17;;
15082;SDS011;7640;53.116;6.878;2022-12-05T08:23:53;19.00;;;10.57;;
15082;SDS011;7640;53.116;6.878;2022-12-05T08:26:23;19.50;;;11.00;;
15082;SDS011;7640;53.116;6.878;2022-12-05T08:28:55;19.87;;;11.47;;
15082;SDS011;7640;53.116;6.878;2022-12-05T08:31:27;23.47;;;11.83;;
15082;SDS011;7640;53.116;6.878;2022-12-05T08:33:57;20.80;;;10.90;;
15082;SDS011;7640;53.116;6.878;2022-12-05T08:36:27;20.77;;;11.43;;
15082;SDS011;7640;53.116;6.878;2022-12-05T08:38:56;17.97;;;10.73;;
15082;SDS011;7640;53.116;6.878;2022-12-05T08:41:26;21.17;;;11.33;;
15082;SDS011;7640;53.116;6.878;2022-12-05T08:43:57;22.07;;;11.33;;
15082;SDS011;7640;53.116;6.878;2022-12-05T08:46:28;22.80;;;11.23;;
15082;SDS011;7640;53.116;6.878;2022-12-05T08:48:57;21.80;;;11.10;;
15082;SDS011;7640;53.116;6.878;2022-12-05T08:51:26;20.00;;;10.97;;
15082;SDS011;7640;53.116;6.878;2022-12-05T08:53:54;23.50;;;11.17;;
15082;SDS011;7640;53.116;6.878;2022-12-05T08:56:22;21.23;;;10.97;;
15082;SDS011;7640;53.116;6.878;2022-12-05T08:58:53;16.40;;;10.90;;
15082;SDS011;7640;53.116;6.878;2022-12-05T09:01:32;21.23;;;11.07;;
15082;SDS011;7640;53.116;6.878;2022-12-05T09:04:04;17.93;;;10.63;;
15082;SDS011;7640;53.116;6.878;2022-12-05T09:06:33;19.17;;;10.03;;
15082;SDS011;7640;53.116;6.878;2022-12-05T09:09:05;22.43;;;11.03;;
15082;SDS011;7640;53.116;6.878;2022-12-05T09:11:38;19.33;;;10.87;;
15082;SDS011;7640;53.116;6.878;2022-12-05T09:14:12;22.07;;;11.40;;
15082;SDS011;7640;53.116;6.878;2022-12-05T09:16:42;20.73;;;11.63;;
15082;SDS011;7640;53.116;6.878;2022-12-05T09:19:12;18.67;;;11.20;;
15082;SDS011;7640;53.116;6.878;2022-12-05T09:21:42;18.03;;;11.00;;
15082;SDS011;7640;53.116;6.878;2022-12-05T09:24:11;18.83;;;10.67;;
15082;SDS011;7640;53.116;6.878;2022-12-05T09:26:40;20.60;;;11.50;;
15082;SDS011;7640;53.116;6.878;2022-12-05T09:29:09;21.57;;;11.40;;
15082;SDS011;7640;53.116;6.878;2022-12-05T09:31:45;23.20;;;13.10;;
15082;SDS011;7640;53.116;6.878;2022-12-05T09:34:16;19.87;;;11.30;;
15082;SDS011;7640;53.116;6.878;2022-12-05T09:36:45;19.60;;;10.87;;
15082;SDS011;7640;53.116;6.878;2022-12-05T09:39:26;21.00;;;11.27;;
15082;SDS011;7640;53.116;6.878;2022-12-05T09:41:58;19.23;;;11.80;;
15082;SDS011;7640;53.116;6.878;2022-12-05T09:44:48;19.47;;;11.50;;
15082;SDS011;7640;53.116;6.878;2022-12-05T09:47:37;20.43;;;11.43;;
15082;SDS011;7640;53.116;6.878;2022-12-05T09:50:16;18.80;;;11.17;;
15082;SDS011;7640;53.116;6.878;2022-12-05T09:52:59;20.33;;;11.40;;
15082;SDS011;7640;53.116;6.878;2022-12-05T09:55:35;19.30;;;10.43;;
15082;SDS011;7640;53.116;6.878;2022-12-05T09:58:16;19.13;;;10.63;;
15082;SDS011;7640;53.116;6.878;2022-12-05T10:00:58;18.20;;;11.13;;
15082;SDS011;7640;53.116;6.878;2022-12-05T10:03:34;16.57;;;10.10;;
15082;SDS011;7640;53.116;6.878;2022-12-05T10:06:14;21.17;;;11.30;;
15082;SDS011;7640;53.116;6.878;2022-12-05T10:08:57;17.33;;;10.13;;
15082;SDS011;7640;53.116;6.878;2022-12-05T10:11:38;19.57;;;10.73;;
15082;SDS011;7640;53.116;6.878;2022-12-05T10:14:15;17.73;;;10.40;;
15082;SDS011;7640;53.116;6.878;2022-12-05T10:16:53;14.47;;;9.23;;
15082;SDS011;7640;53.116;6.878;2022-12-05T10:19:27;16.60;;;9.33;;
15082;SDS011;7640;53.116;6.878;2022-12-05T10:22:01;14.70;;;8.87;;
15082;SDS011;7640;53.116;6.878;2022-12-05T10:24:43;16.57;;;10.03;;
15082;SDS011;7640;53.116;6.878;2022-12-05T10:27:16;16.33;;;9.23;;
15082;SDS011;7640;53.116;6.878;2022-12-05T10:29:49;15.10;;;9.10;;
15082;SDS011;7640;53.116;6.878;2022-12-05T10:32:27;19.50;;;9.03;;
15082;SDS011;7640;53.116;6.878;2022-12-05T10:35:09;15.03;;;9.03;;
15082;SDS011;7640;53.116;6.878;2022-12-05T10:37:45;16.00;;;9.17;;
15082;SDS011;7640;53.116;6.878;2022-12-05T10:40:16;13.83;;;9.30;;
15082;SDS011;7640;53.116;6.878;2022-12-05T10:42:45;14.87;;;8.70;;
15082;SDS011;7640;53.116;6.878;2022-12-05T10:45:16;16.87;;;9.60;;
15082;SDS011;7640;53.116;6.878;2022-12-05T10:47:47;13.00;;;8.53;;
15082;SDS011;7640;53.116;6.878;2022-12-05T10:50:21;15.40;;;8.77;;
15082;SDS011;7640;53.116;6.878;2022-12-05T10:52:55;14.67;;;8.93;;
15082;SDS011;7640;53.116;6.878;2022-12-05T10:55:25;17.30;;;10.20;;
15082;SDS011;7640;53.116;6.878;2022-12-05T10:58:09;15.90;;;9.77;;
15082;SDS011;7640;53.116;6.878;2022-12-05T11:00:43;15.53;;;9.20;;
15082;SDS011;7640;53.116;6.878;2022-12-05T11:03:24;15.83;;;9.50;;
15082;SDS011;7640;53.116;6.878;2022-12-05T11:05:59;17.73;;;9.57;;
15082;SDS011;7640;53.116;6.878;2022-12-05T11:08:29;17.23;;;8.70;;
15082;SDS011;7640;53.116;6.878;2022-12-05T11:11:20;14.67;;;8.43;;
15082;SDS011;7640;53.116;6.878;2022-12-05T11:13:53;16.57;;;9.33;;
15082;SDS011;7640;53.116;6.878;2022-12-05T11:16:25;15.10;;;8.87;;
15082;SDS011;7640;53.116;6.878;2022-12-05T11:19:03;13.53;;;8.50;;
15082;SDS011;7640;53.116;6.878;2022-12-05T11:21:53;15.30;;;8.87;;
15082;SDS011;7640;53.116;6.878;2022-12-05T11:24:24;14.37;;;8.40;;
15082;SDS011;7640;53.116;6.878;2022-12-05T11:26:55;14.27;;;9.40;;
15082;SDS011;7640;53.116;6.878;2022-12-05T11:29:32;15.73;;;9.03;;
15082;SDS011;7640;53.116;6.878;2022-12-05T11:32:04;15.33;;;8.43;;
15082;SDS011;7640;53.116;6.878;2022-12-05T11:34:46;14.43;;;8.80;;
15082;SDS011;7640;53.116;6.878;2022-12-05T11:37:21;14.07;;;9.00;;
15082;SDS011;7640;53.116;6.878;2022-12-05T11:39:53;16.43;;;8.93;;
15082;SDS011;7640;53.116;6.878;2022-12-05T11:42:26;13.53;;;8.10;;
15082;SDS011;7640;53.116;6.878;2022-12-05T11:45:16;14.40;;;8.53;;
15082;SDS011;7640;53.116;6.878;2022-12-05T11:48:03;15.10;;;8.63;;
15082;SDS011;7640;53.116;6.878;2022-12-05T11:51:04;13.43;;;8.27;;
15082;SDS011;7640;53.116;6.878;2022-12-05T11:53:57;13.83;;;8.00;;
15082;SDS011;7640;53.116;6.878;2022-12-05T11:57:35;12.90;;;7.23;;
15082;SDS011;7640;53.116;6.878;2022-12-05T12:00:36;14.03;;;7.97;;
15082;SDS011;7640;53.116;6.878;2022-12-05T12:03:14;14.07;;;7.97;;
15082;SDS011;7640;53.116;6.878;2022-12-05T12:06:10;15.43;;;8.10;;
15082;SDS011;7640;53.116;6.878;2022-12-05T12:08:54;10.20;;;6.33;;
15082;SDS011;7640;53.116;6.878;2022-12-05T12:11:36;11.87;;;7.73;;
15082;SDS011;7640;53.116;6.878;2022-12-05T12:14:15;10.87;;;7.17;;
15082;SDS011;7640;53.116;6.878;2022-12-05T12:16:54;11.47;;;6.67;;
15082;SDS011;7640;53.116;6.878;2022-12-05T12:19:38;13.10;;;6.90;;
15082;SDS011;7640;53.116;6.878;2022-12-05T12:22:25;13.27;;;6.93;;
15082;SDS011;7640;53.116;6.878;2022-12-05T12:25:15;11.33;;;6.43;;
15082;SDS011;7640;53.116;6.878;2022-12-05T12:27:55;10.93;;;6.83;;
15082;SDS011;7640;53.116;6.878;2022-12-05T12:30:35;12.20;;;6.67;;
15082;SDS011;7640;53.116;6.878;2022-12-05T12:33:22;11.07;;;6.20;;
15082;SDS011;7640;53.116;6.878;2022-12-05T12:35:59;12.17;;;6.20;;
15082;SDS011;7640;53.116;6.878;2022-12-05T12:38:43;11.83;;;6.57;;
15082;SDS011;7640;53.116;6.878;2022-12-05T12:41:39;12.67;;;6.60;;
15082;SDS011;7640;53.116;6.878;2022-12-05T12:44:30;11.70;;;6.50;;
15082;SDS011;7640;53.116;6.878;2022-12-05T12:47:26;11.30;;;6.50;;
15082;SDS011;7640;53.116;6.878;2022-12-05T12:50:08;11.73;;;6.57;;
15082;SDS011;7640;53.116;6.878;2022-12-05T12:52:49;11.10;;;6.50;;
15082;SDS011;7640;53.116;6.878;2022-12-05T12:55:36;13.07;;;7.57;;
15082;SDS011;7640;53.116;6.878;2022-12-05T12:58:15;13.63;;;6.97;;
15082;SDS011;7640;53.116;6.878;2022-12-05T13:01:07;11.70;;;6.77;;
15082;SDS011;7640;53.116;6.878;2022-12-05T13:03:45;12.77;;;7.23;;
15082;SDS011;7640;53.116;6.878;2022-12-05T13:06:20;12.97;;;6.97;;
15082;SDS011;7640;53.116;6.878;2022-12-05T13:08:56;10.80;;;6.63;;
15082;SDS011;7640;53.116;6.878;2022-12-05T13:11:30;14.93;;;7.10;;
15082;SDS011;7640;53.116;6.878;2022-12-05T13:14:06;13.03;;;6.83;;
15082;SDS011;7640;53.116;6.878;2022-12-05T13:16:40;12.17;;;6.83;;
15082;SDS011;7640;53.116;6.878;2022-12-05T13:19:16;14.00;;;8.20;;
15082;SDS011;7640;53.116;6.878;2022-12-05T13:21:54;10.70;;;6.73;;
15082;SDS011;7640;53.116;6.878;2022-12-05T13:24:24;13.37;;;9.07;;
15082;SDS011;7640;53.116;6.878;2022-12-05T13:26:56;15.97;;;9.07;;
15082;SDS011;7640;53.116;6.878;2022-12-05T13:29:30;11.33;;;7.20;;
15082;SDS011;7640;53.116;6.878;2022-12-05T13:32:00;13.50;;;7.93;;
15082;SDS011;7640;53.116;6.878;2022-12-05T13:34:46;10.03;;;6.90;;
15082;SDS011;7640;53.116;6.878;2022-12-05T13:37:17;11.40;;;6.60;;
15082;SDS011;7640;53.116;6.878;2022-12-05T13:40:18;13.37;;;6.70;;
15082;SDS011;7640;53.116;6.878;2022-12-05T13:43:09;12.87;;;6.20;;
15082;SDS011;7640;53.116;6.878;2022-12-05T13:45:41;10.40;;;6.43;;
15082;SDS011;7640;53.116;6.878;2022-12-05T13:48:29;11.63;;;6.70;;
15082;SDS011;7640;53.116;6.878;2022-12-05T13:51:01;14.03;;;8.13;;
15082;SDS011;7640;53.116;6.878;2022-12-05T13:53:34;14.43;;;8.40;;
15082;SDS011;7640;53.116;6.878;2022-12-05T13:56:21;13.50;;;7.20;;
15082;SDS011;7640;53.116;6.878;2022-12-05T13:58:54;12.63;;;6.60;;
15082;SDS011;7640;53.116;6.878;2022-12-05T14:10:09;12.47;;;6.43;;
15082;SDS011;7640;53.116;6.878;2022-12-05T14:12:47;10.73;;;5.57;;
15082;SDS011;7640;53.116;6.878;2022-12-05T14:15:25;9.77;;;6.13;;
15082;SDS011;7640;53.116;6.878;2022-12-05T14:18:05;11.40;;;6.20;;
15082;SDS011;7640;53.116;6.878;2022-12-05T14:20:46;12.53;;;6.43;;
15082;SDS011;7640;53.116;6.878;2022-12-05T14:23:44;10.27;;;5.97;;
15082;SDS011;7640;53.116;6.878;2022-12-05T14:26:36;12.67;;;6.53;;
15082;SDS011;7640;53.116;6.878;2022-12-05T14:29:23;14.03;;;6.60;;
15082;SDS011;7640;53.116;6.878;2022-12-05T14:32:06;12.13;;;6.77;;
15082;SDS011;7640;53.116;6.878;2022-12-05T14:34:50;12.40;;;6.70;;
15082;SDS011;7640;53.116;6.878;2022-12-05T14:37:25;12.10;;;6.33;;
15082;SDS011;7640;53.116;6.878;2022-12-05T14:39:57;10.37;;;5.87;;
15082;SDS011;7640;53.116;6.878;2022-12-05T14:42:33;12.60;;;6.50;;
15082;SDS011;7640;53.116;6.878;2022-12-05T14:45:20;10.23;;;5.97;;
15082;SDS011;7640;53.116;6.878;2022-12-05T14:47:56;11.27;;;6.20;;
15082;SDS011;7640;53.116;6.878;2022-12-05T14:50:35;12.93;;;6.17;;
15082;SDS011;7640;53.116;6.878;2022-12-05T14:53:13;12.63;;;5.90;;
15082;SDS011;7640;53.116;6.878;2022-12-05T14:55:49;10.93;;;6.17;;
15082;SDS011;7640;53.116;6.878;2022-12-05T14:58:24;12.27;;;6.03;;
15082;SDS011;7640;53.116;6.878;2022-12-05T15:01:01;12.73;;;5.70;;
15082;SDS011;7640;53.116;6.878;2022-12-05T15:03:35;13.40;;;6.73;;
15082;SDS011;7640;53.116;6.878;2022-12-05T15:06:12;11.67;;;6.20;;
15082;SDS011;7640;53.116;6.878;2022-12-05T15:08:44;11.13;;;5.57;;
15082;SDS011;7640;53.116;6.878;2022-12-05T15:11:16;13.23;;;6.33;;
15082;SDS011;7640;53.116;6.878;2022-12-05T15:13:55;10.30;;;5.87;;
15082;SDS011;7640;53.116;6.878;2022-12-05T15:16:27;8.97;;;5.07;;
15082;SDS011;7640;53.116;6.878;2022-12-05T15:18:59;8.67;;;5.47;;
15082;SDS011;7640;53.116;6.878;2022-12-05T15:21:37;12.13;;;6.10;;
15082;SDS011;7640;53.116;6.878;2022-12-05T15:24:11;9.70;;;5.50;;
15082;SDS011;7640;53.116;6.878;2022-12-05T15:26:41;13.47;;;6.30;;
15082;SDS011;7640;53.116;6.878;2022-12-05T15:29:15;12.10;;;5.97;;
15082;SDS011;7640;53.116;6.878;2022-12-05T15:31:52;12.57;;;6.10;;
15082;SDS011;7640;53.116;6.878;2022-12-05T15:34:23;13.73;;;6.30;;
15082;SDS011;7640;53.116;6.878;2022-12-05T15:36:59;12.50;;;6.87;;
15082;SDS011;7640;53.116;6.878;2022-12-05T15:39:48;13.57;;;6.13;;
15082;SDS011;7640;53.116;6.878;2022-12-05T15:42:20;12.57;;;6.30;;
15082;SDS011;7640;53.116;6.878;2022-12-05T15:44:59;11.03;;;5.73;;